sensor_id;sensor_type;location;lat;lon;timestamp;pressure;altitude;pressure_sealevel;temperature;humidity
77469;BME280;68840;50.272;12.818;2023-06-14T00:00:07;95800;;;12.1;59.1
77469;BME280;68840;50.272;12.818;2023-06-14T00:02:08;95800;;;12.0;59.4
77469;BME280;68840;50.272;12.818;2023-06-14T00:04:08;95798;;;12.0;60.0
77469;BME280;68840;50.272;12.818;2023-06-14T00:06:05;95799;;;12.0;60.6
77469;BME280;68840;50.272;12.818;2023-06-14T00:08:08;95799;;;11.9;59.5
77469;BME280;68840;50.272;12.818;2023-06-14T00:10:06;95798;;;11.9;60.0
77469;BME280;68840;50.272;12.818;2023-06-14T00:12:06;95798;;;11.8;60.3
77469;BME280;68840;50.272;12.818;2023-06-14T00:14:05;95798;;;11.8;60.3
77469;BME280;68840;50.272;12.818;2023-06-14T00:16:05;95798;;;11.8;60.3
77469;BME280;68840;50.272;12.818;2023-06-14T00:18:05;95799;;;11.7;61.7
77469;BME280;68840;50.272;12.818;2023-06-14T00:20:07;95799;;;11.7;62.0
77469;BME280;68840;50.272;12.818;2023-06-14T00:22:05;95801;;;11.7;63.4
77469;BME280;68840;50.272;12.818;2023-06-14T00:24:05;95803;;;11.7;63.5
77469;BME280;68840;50.272;12.818;2023-06-14T00:26:05;95803;;;11.8;63.2
77469;BME280;68840;50.272;12.818;2023-06-14T00:28:05;95802;;;11.8;63.1
77469;BME280;68840;50.272;12.818;2023-06-14T00:30:06;95801;;;11.8;61.6
77469;BME280;68840;50.272;12.818;2023-06-14T00:32:05;95801;;;11.8;61.2
77469;BME280;68840;50.272;12.818;2023-06-14T00:34:05;95802;;;11.8;62.0
77469;BME280;68840;50.272;12.818;2023-06-14T00:36:05;95807;;;11.8;61.9
77469;BME280;68840;50.272;12.818;2023-06-14T00:38:05;95808;;;11.8;62.1
77469;BME280;68840;50.272;12.818;2023-06-14T00:40:06;95807;;;11.8;61.9
77469;BME280;68840;50.272;12.818;2023-06-14T00:42:05;95805;;;11.9;61.8
77469;BME280;68840;50.272;12.818;2023-06-14T00:44:05;95806;;;11.9;60.5
77469;BME280;68840;50.272;12.818;2023-06-14T00:46:05;95806;;;11.9;61.0
77469;BME280;68840;50.272;12.818;2023-06-14T00:48:06;95805;;;11.8;61.7
77469;BME280;68840;50.272;12.818;2023-06-14T00:50:07;95806;;;11.8;61.1
77469;BME280;68840;50.272;12.818;2023-06-14T00:52:06;95806;;;11.8;61.1
77469;BME280;68840;50.272;12.818;2023-06-14T00:54:05;95805;;;11.8;61.8
77469;BME280;68840;50.272;12.818;2023-06-14T00:56:05;95805;;;11.9;61.9
77469;BME280;68840;50.272;12.818;2023-06-14T00:58:06;95804;;;11.9;62.0
77469;BME280;68840;50.272;12.818;2023-06-14T01:00:09;95804;;;11.9;62.2
77469;BME280;68840;50.272;12.818;2023-06-14T01:02:05;95803;;;11.9;62.0
77469;BME280;68840;50.272;12.818;2023-06-14T01:04:05;95801;;;11.9;62.1
77469;BME280;68840;50.272;12.818;2023-06-14T01:06:17;95802;;;11.9;61.4
77469;BME280;68840;50.272;12.818;2023-06-14T01:08:13;95801;;;11.9;61.1
77469;BME280;68840;50.272;12.818;2023-06-14T01:10:15;95800;;;11.9;60.7
77469;BME280;68840;50.272;12.818;2023-06-14T01:12:11;95799;;;11.8;61.8
77469;BME280;68840;50.272;12.818;2023-06-14T01:14:06;95800;;;11.8;62.1
77469;BME280;68840;50.272;12.818;2023-06-14T01:16:07;95801;;;11.7;61.8
77469;BME280;68840;50.272;12.818;2023-06-14T01:18:05;95802;;;11.7;62.1
77469;BME280;68840;50.272;12.818;2023-06-14T01:20:10;95802;;;11.6;60.7
77469;BME280;68840;50.272;12.818;2023-06-14T01:22:05;95803;;;11.5;60.0
77469;BME280;68840;50.272;12.818;2023-06-14T01:24:05;95803;;;11.4;58.9
77469;BME280;68840;50.272;12.818;2023-06-14T01:26:05;95805;;;11.3;58.4
77469;BME280;68840;50.272;12.818;2023-06-14T01:28:11;95807;;;11.2;58.6
77469;BME280;68840;50.272;12.818;2023-06-14T01:30:06;95806;;;11.1;58.1
77469;BME280;68840;50.272;12.818;2023-06-14T01:32:07;95806;;;11.0;58.0
77469;BME280;68840;50.272;12.818;2023-06-14T01:34:05;95807;;;10.9;58.5
77469;BME280;68840;50.272;12.818;2023-06-14T01:36:07;95810;;;10.7;57.9
77469;BME280;68840;50.272;12.818;2023-06-14T01:38:06;95811;;;10.6;58.3
77469;BME280;68840;50.272;12.818;2023-06-14T01:40:06;95814;;;10.5;60.0
77469;BME280;68840;50.272;12.818;2023-06-14T01:42:06;95815;;;10.4;59.6
77469;BME280;68840;50.272;12.818;2023-06-14T01:44:05;95815;;;10.3;60.1
77469;BME280;68840;50.272;12.818;2023-06-14T01:46:06;95814;;;10.2;60.6
77469;BME280;68840;50.272;12.818;2023-06-14T01:48:05;95815;;;10.2;60.4
77469;BME280;68840;50.272;12.818;2023-06-14T01:50:06;95813;;;10.1;60.8
77469;BME280;68840;50.272;12.818;2023-06-14T01:52:06;95812;;;10.1;61.0
77469;BME280;68840;50.272;12.818;2023-06-14T01:54:05;95809;;;10.1;62.0
77469;BME280;68840;50.272;12.818;2023-06-14T01:56:06;95809;;;10.1;61.4
77469;BME280;68840;50.272;12.818;2023-06-14T01:58:05;95809;;;10.1;61.9
77469;BME280;68840;50.272;12.818;2023-06-14T02:00:11;95808;;;10.0;61.7
77469;BME280;68840;50.272;12.818;2023-06-14T02:02:05;95807;;;9.9;61.4
77469;BME280;68840;50.272;12.818;2023-06-14T02:04:05;95808;;;9.9;60.6
77469;BME280;68840;50.272;12.818;2023-06-14T02:06:05;95810;;;9.8;61.3
77469;BME280;68840;50.272;12.818;2023-06-14T02:08:05;95811;;;9.8;62.1
77469;BME280;68840;50.272;12.818;2023-06-14T02:10:05;95812;;;9.7;61.5
77469;BME280;68840;50.272;12.818;2023-06-14T02:12:06;95810;;;9.7;61.0
77469;BME280;68840;50.272;12.818;2023-06-14T02:14:06;95810;;;9.6;61.0
77469;BME280;68840;50.272;12.818;2023-06-14T02:16:05;95809;;;9.6;62.3
77469;BME280;68840;50.272;12.818;2023-06-14T02:18:05;95810;;;9.5;62.4
77469;BME280;68840;50.272;12.818;2023-06-14T02:20:06;95808;;;9.5;62.3
77469;BME280;68840;50.272;12.818;2023-06-14T02:22:05;95809;;;9.4;61.7
77469;BME280;68840;50.272;12.818;2023-06-14T02:24:06;95808;;;9.4;62.5
77469;BME280;68840;50.272;12.818;2023-06-14T02:26:05;95807;;;9.4;61.3
77469;BME280;68840;50.272;12.818;2023-06-14T02:28:05;95806;;;9.3;62.1
77469;BME280;68840;50.272;12.818;2023-06-14T02:30:06;95805;;;9.3;63.0
77469;BME280;68840;50.272;12.818;2023-06-14T02:32:07;95807;;;9.3;61.7
77469;BME280;68840;50.272;12.818;2023-06-14T02:34:05;95812;;;9.3;62.6
77469;BME280;68840;50.272;12.818;2023-06-14T02:36:06;95814;;;9.3;62.8
77469;BME280;68840;50.272;12.818;2023-06-14T02:38:05;95815;;;9.2;62.2
77469;BME280;68840;50.272;12.818;2023-06-14T02:40:06;95815;;;9.2;63.1
77469;BME280;68840;50.272;12.818;2023-06-14T02:42:06;95816;;;9.2;62.9
77469;BME280;68840;50.272;12.818;2023-06-14T02:44:05;95816;;;9.1;62.9
77469;BME280;68840;50.272;12.818;2023-06-14T02:46:06;95815;;;9.1;62.3
77469;BME280;68840;50.272;12.818;2023-06-14T02:48:05;95814;;;9.0;63.0
77469;BME280;68840;50.272;12.818;2023-06-14T02:50:07;95814;;;8.9;62.1
77469;BME280;68840;50.272;12.818;2023-06-14T02:52:06;95816;;;8.9;62.1
77469;BME280;68840;50.272;12.818;2023-06-14T02:54:05;95818;;;8.9;61.0
77469;BME280;68840;50.272;12.818;2023-06-14T02:56:05;95818;;;8.9;61.2
77469;BME280;68840;50.272;12.818;2023-06-14T02:58:05;95819;;;8.8;62.4
77469;BME280;68840;50.272;12.818;2023-06-14T03:00:10;95821;;;8.8;63.4
77469;BME280;68840;50.272;12.818;2023-06-14T03:02:05;95823;;;8.8;61.3
77469;BME280;68840;50.272;12.818;2023-06-14T03:04:05;95823;;;8.7;61.6
77469;BME280;68840;50.272;12.818;2023-06-14T03:06:05;95826;;;8.7;61.6
77469;BME280;68840;50.272;12.818;2023-06-14T03:08:05;95828;;;8.7;62.7
77469;BME280;68840;50.272;12.818;2023-06-14T03:10:05;95830;;;8.7;64.5
77469;BME280;68840;50.272;12.818;2023-06-14T03:12:07;95831;;;8.7;65.2
77469;BME280;68840;50.272;12.818;2023-06-14T03:14:06;95832;;;8.8;64.9
77469;BME280;68840;50.272;12.818;2023-06-14T03:16:07;95833;;;8.8;64.9
77469;BME280;68840;50.272;12.818;2023-06-14T03:18:05;95835;;;8.8;64.1
77469;BME280;68840;50.272;12.818;2023-06-14T03:20:06;95838;;;8.8;63.8
77469;BME280;68840;50.272;12.818;2023-06-14T03:22:07;95843;;;8.9;64.8
77469;BME280;68840;50.272;12.818;2023-06-14T03:24:05;95845;;;8.9;65.4
77469;BME280;68840;50.272;12.818;2023-06-14T03:26:05;95844;;;8.9;66.7
77469;BME280;68840;50.272;12.818;2023-06-14T03:28:05;95844;;;8.9;67.0
77469;BME280;68840;50.272;12.818;2023-06-14T03:30:07;95845;;;9.0;67.4
77469;BME280;68840;50.272;12.818;2023-06-14T03:32:05;95844;;;9.1;66.9
77469;BME280;68840;50.272;12.818;2023-06-14T03:34:05;95846;;;9.1;67.6
77469;BME280;68840;50.272;12.818;2023-06-14T03:36:06;95846;;;9.2;68.4
77469;BME280;68840;50.272;12.818;2023-06-14T03:38:05;95848;;;9.2;68.5
77469;BME280;68840;50.272;12.818;2023-06-14T03:40:06;95848;;;9.3;68.0
77469;BME280;68840;50.272;12.818;2023-06-14T03:42:06;95851;;;9.3;67.9
77469;BME280;68840;50.272;12.818;2023-06-14T03:44:05;95850;;;9.4;68.6
77469;BME280;68840;50.272;12.818;2023-06-14T03:46:05;95851;;;9.4;69.2
77469;BME280;68840;50.272;12.818;2023-06-14T03:48:06;95851;;;9.4;69.3
77469;BME280;68840;50.272;12.818;2023-06-14T03:50:05;95851;;;9.5;69.5
77469;BME280;68840;50.272;12.818;2023-06-14T03:52:05;95853;;;9.5;69.2
77469;BME280;68840;50.272;12.818;2023-06-14T03:54:05;95854;;;9.6;69.6
77469;BME280;68840;50.272;12.818;2023-06-14T03:56:05;95856;;;9.6;69.8
77469;BME280;68840;50.272;12.818;2023-06-14T03:58:06;95852;;;9.7;70.3
77469;BME280;68840;50.272;12.818;2023-06-14T04:00:06;95854;;;9.7;70.2
77469;BME280;68840;50.272;12.818;2023-06-14T04:02:05;95855;;;9.8;69.6
77469;BME280;68840;50.272;12.818;2023-06-14T04:04:05;95857;;;9.9;69.7
77469;BME280;68840;50.272;12.818;2023-06-14T04:06:05;95858;;;10.1;68.7
77469;BME280;68840;50.272;12.818;2023-06-14T04:08:08;95860;;;10.4;67.4
77469;BME280;68840;50.272;12.818;2023-06-14T04:10:06;95861;;;10.7;66.0
77469;BME280;68840;50.272;12.818;2023-06-14T04:12:07;95861;;;11.0;64.8
77469;BME280;68840;50.272;12.818;2023-06-14T04:14:05;95861;;;11.4;63.7
77469;BME280;68840;50.272;12.818;2023-06-14T04:16:05;95860;;;11.7;62.9
77469;BME280;68840;50.272;12.818;2023-06-14T04:18:05;95861;;;12.0;62.0
77469;BME280;68840;50.272;12.818;2023-06-14T04:20:09;95862;;;12.3;60.9
77469;BME280;68840;50.272;12.818;2023-06-14T04:22:05;95865;;;12.7;59.7
77469;BME280;68840;50.272;12.818;2023-06-14T04:24:06;95866;;;13.0;58.4
77469;BME280;68840;50.272;12.818;2023-06-14T04:26:05;95866;;;13.3;58.0
77469;BME280;68840;50.272;12.818;2023-06-14T04:28:05;95864;;;13.6;57.2
77469;BME280;68840;50.272;12.818;2023-06-14T04:30:06;95867;;;13.9;56.7
77469;BME280;68840;50.272;12.818;2023-06-14T04:32:07;95869;;;14.2;55.5
77469;BME280;68840;50.272;12.818;2023-06-14T04:34:05;95871;;;14.5;54.6
77469;BME280;68840;50.272;12.818;2023-06-14T04:36:05;95873;;;14.8;53.8
77469;BME280;68840;50.272;12.818;2023-06-14T04:38:09;95877;;;15.0;53.7
77469;BME280;68840;50.272;12.818;2023-06-14T04:40:07;95882;;;15.3;52.7
77469;BME280;68840;50.272;12.818;2023-06-14T04:42:07;95887;;;15.5;52.2
77469;BME280;68840;50.272;12.818;2023-06-14T04:44:05;95889;;;15.7;51.7
77469;BME280;68840;50.272;12.818;2023-06-14T04:46:06;95888;;;15.9;50.8
77469;BME280;68840;50.272;12.818;2023-06-14T04:48:06;95889;;;16.2;50.7
77469;BME280;68840;50.272;12.818;2023-06-14T04:50:06;95891;;;16.4;50.2
77469;BME280;68840;50.272;12.818;2023-06-14T04:52:06;95891;;;16.6;49.9
77469;BME280;68840;50.272;12.818;2023-06-14T04:54:10;95892;;;16.8;50.0
77469;BME280;68840;50.272;12.818;2023-06-14T04:56:05;95893;;;16.9;49.3
77469;BME280;68840;50.272;12.818;2023-06-14T04:58:05;95894;;;17.0;49.4
77469;BME280;68840;50.272;12.818;2023-06-14T05:00:06;95893;;;17.2;48.9
77469;BME280;68840;50.272;12.818;2023-06-14T05:02:07;95894;;;17.3;48.5
77469;BME280;68840;50.272;12.818;2023-06-14T05:04:05;95895;;;17.5;48.4
77469;BME280;68840;50.272;12.818;2023-06-14T05:06:06;95893;;;17.7;48.5
77469;BME280;68840;50.272;12.818;2023-06-14T05:08:05;95889;;;17.9;48.5
77469;BME280;68840;50.272;12.818;2023-06-14T05:10:06;95885;;;18.1;47.0
77469;BME280;68840;50.272;12.818;2023-06-14T05:12:08;95884;;;18.3;47.4
77469;BME280;68840;50.272;12.818;2023-06-14T05:14:06;95884;;;18.4;47.4
77469;BME280;68840;50.272;12.818;2023-06-14T05:16:06;95886;;;18.6;46.6
77469;BME280;68840;50.272;12.818;2023-06-14T05:18:05;95886;;;18.7;46.0
77469;BME280;68840;50.272;12.818;2023-06-14T05:20:06;95884;;;18.8;45.9
77469;BME280;68840;50.272;12.818;2023-06-14T05:22:05;95886;;;18.9;45.3
77469;BME280;68840;50.272;12.818;2023-06-14T05:24:05;95886;;;19.1;45.1
77469;BME280;68840;50.272;12.818;2023-06-14T05:26:06;95890;;;19.2;45.1
77469;BME280;68840;50.272;12.818;2023-06-14T05:28:05;95892;;;19.3;44.5
77469;BME280;68840;50.272;12.818;2023-06-14T05:30:06;95890;;;19.4;44.6
77469;BME280;68840;50.272;12.818;2023-06-14T05:32:05;95891;;;19.4;44.1
77469;BME280;68840;50.272;12.818;2023-06-14T05:34:05;95891;;;19.4;44.5
77469;BME280;68840;50.272;12.818;2023-06-14T05:36:05;95892;;;19.4;44.2
77469;BME280;68840;50.272;12.818;2023-06-14T05:38:07;95895;;;19.4;44.2
77469;BME280;68840;50.272;12.818;2023-06-14T05:40:08;95898;;;19.4;44.3
77469;BME280;68840;50.272;12.818;2023-06-14T05:42:06;95900;;;19.4;44.4
77469;BME280;68840;50.272;12.818;2023-06-14T05:44:05;95901;;;19.4;44.1
77469;BME280;68840;50.272;12.818;2023-06-14T05:46:05;95904;;;19.4;43.9
77469;BME280;68840;50.272;12.818;2023-06-14T05:48:05;95907;;;19.5;44.7
77469;BME280;68840;50.272;12.818;2023-06-14T05:50:05;95908;;;19.5;44.0
77469;BME280;68840;50.272;12.818;2023-06-14T05:52:06;95910;;;19.6;43.5
77469;BME280;68840;50.272;12.818;2023-06-14T05:54:05;95911;;;19.6;43.7
77469;BME280;68840;50.272;12.818;2023-06-14T05:56:05;95912;;;19.6;43.9
77469;BME280;68840;50.272;12.818;2023-06-14T05:58:05;95915;;;19.6;44.0
77469;BME280;68840;50.272;12.818;2023-06-14T06:00:14;95915;;;19.6;43.9
77469;BME280;68840;50.272;12.818;2023-06-14T06:02:05;95916;;;19.7;43.7
77469;BME280;68840;50.272;12.818;2023-06-14T06:04:06;95918;;;19.9;43.4
77469;BME280;68840;50.272;12.818;2023-06-14T06:06:05;95918;;;20.0;43.2
77469;BME280;68840;50.272;12.818;2023-06-14T06:08:05;95916;;;20.0;43.1
77469;BME280;68840;50.272;12.818;2023-06-14T06:10:06;95916;;;19.9;42.8
77469;BME280;68840;50.272;12.818;2023-06-14T06:12:07;95916;;;19.7;43.1
77469;BME280;68840;50.272;12.818;2023-06-14T06:14:05;95921;;;19.3;43.0
77469;BME280;68840;50.272;12.818;2023-06-14T06:16:05;95921;;;18.9;43.4
77469;BME280;68840;50.272;12.818;2023-06-14T06:18:06;95921;;;18.6;44.8
77469;BME280;68840;50.272;12.818;2023-06-14T06:20:08;95924;;;18.4;45.2
77469;BME280;68840;50.272;12.818;2023-06-14T06:22:06;95928;;;18.1;45.8
77469;BME280;68840;50.272;12.818;2023-06-14T06:24:05;95930;;;18.0;45.7
77469;BME280;68840;50.272;12.818;2023-06-14T06:26:05;95932;;;17.8;46.0
77469;BME280;68840;50.272;12.818;2023-06-14T06:28:05;95935;;;17.7;45.9
77469;BME280;68840;50.272;12.818;2023-06-14T06:30:06;95934;;;17.6;46.8
77469;BME280;68840;50.272;12.818;2023-06-14T06:32:06;95935;;;17.5;46.6
77469;BME280;68840;50.272;12.818;2023-06-14T06:34:05;95934;;;17.4;46.9
77469;BME280;68840;50.272;12.818;2023-06-14T06:36:05;95937;;;17.3;47.0
77469;BME280;68840;50.272;12.818;2023-06-14T06:38:05;95937;;;17.2;46.6
77469;BME280;68840;50.272;12.818;2023-06-14T06:40:06;95940;;;17.2;46.8
77469;BME280;68840;50.272;12.818;2023-06-14T06:42:06;95942;;;17.1;46.7
77469;BME280;68840;50.272;12.818;2023-06-14T06:44:05;95941;;;17.0;46.9
77469;BME280;68840;50.272;12.818;2023-06-14T06:46:05;95942;;;17.0;47.6
77469;BME280;68840;50.272;12.818;2023-06-14T06:48:05;95941;;;16.9;48.0
77469;BME280;68840;50.272;12.818;2023-06-14T06:50:07;95938;;;16.9;48.8
77469;BME280;68840;50.272;12.818;2023-06-14T06:52:06;95937;;;17.0;49.1
77469;BME280;68840;50.272;12.818;2023-06-14T06:54:06;95938;;;17.0;48.0
77469;BME280;68840;50.272;12.818;2023-06-14T06:56:05;95937;;;17.0;47.7
77469;BME280;68840;50.272;12.818;2023-06-14T06:58:05;95938;;;17.0;47.4
77469;BME280;68840;50.272;12.818;2023-06-14T07:00:08;95943;;;17.0;47.3
77469;BME280;68840;50.272;12.818;2023-06-14T07:02:06;95944;;;17.0;47.7
77469;BME280;68840;50.272;12.818;2023-06-14T07:04:05;95948;;;17.1;47.1
77469;BME280;68840;50.272;12.818;2023-06-14T07:06:05;95947;;;17.1;47.7
77469;BME280;68840;50.272;12.818;2023-06-14T07:08:05;95951;;;17.1;46.8
77469;BME280;68840;50.272;12.818;2023-06-14T07:10:05;95952;;;17.1;47.7
77469;BME280;68840;50.272;12.818;2023-06-14T07:12:06;95955;;;17.1;48.0
77469;BME280;68840;50.272;12.818;2023-06-14T07:14:05;95956;;;17.1;47.5
77469;BME280;68840;50.272;12.818;2023-06-14T07:16:05;95957;;;17.1;48.6
77469;BME280;68840;50.272;12.818;2023-06-14T07:18:07;95959;;;17.2;48.6
77469;BME280;68840;50.272;12.818;2023-06-14T07:20:08;95961;;;17.2;48.0
77469;BME280;68840;50.272;12.818;2023-06-14T07:22:05;95961;;;17.3;47.8
77469;BME280;68840;50.272;12.818;2023-06-14T07:24:06;95962;;;17.3;48.4
77469;BME280;68840;50.272;12.818;2023-06-14T07:26:05;95961;;;17.4;47.9
77469;BME280;68840;50.272;12.818;2023-06-14T07:28:05;95962;;;17.4;48.4
77469;BME280;68840;50.272;12.818;2023-06-14T07:30:06;95964;;;17.5;47.3
77469;BME280;68840;50.272;12.818;2023-06-14T07:32:06;95966;;;17.5;48.8
77469;BME280;68840;50.272;12.818;2023-06-14T07:34:05;95968;;;17.6;47.1
77469;BME280;68840;50.272;12.818;2023-06-14T07:36:05;95971;;;17.7;47.1
77469;BME280;68840;50.272;12.818;2023-06-14T07:38:05;95975;;;17.7;46.0
77469;BME280;68840;50.272;12.818;2023-06-14T07:40:06;95978;;;17.8;46.7
77469;BME280;68840;50.272;12.818;2023-06-14T07:42:06;95978;;;17.8;46.3
77469;BME280;68840;50.272;12.818;2023-06-14T07:44:05;95977;;;17.9;46.4
77469;BME280;68840;50.272;12.818;2023-06-14T07:46:05;95979;;;18.0;47.6
77469;BME280;68840;50.272;12.818;2023-06-14T07:48:05;95978;;;18.0;46.7
77469;BME280;68840;50.272;12.818;2023-06-14T07:50:05;95976;;;18.1;45.7
77469;BME280;68840;50.272;12.818;2023-06-14T07:52:05;95974;;;18.2;46.2
77469;BME280;68840;50.272;12.818;2023-06-14T07:54:07;95972;;;18.2;47.2
77469;BME280;68840;50.272;12.818;2023-06-14T07:56:05;95974;;;18.3;45.9
77469;BME280;68840;50.272;12.818;2023-06-14T07:58:06;95978;;;18.4;45.3
77469;BME280;68840;50.272;12.818;2023-06-14T08:00:07;95977;;;18.5;45.7
77469;BME280;68840;50.272;12.818;2023-06-14T08:02:06;95976;;;18.5;44.4
77469;BME280;68840;50.272;12.818;2023-06-14T08:04:05;95971;;;18.6;45.1
77469;BME280;68840;50.272;12.818;2023-06-14T08:06:06;95972;;;18.6;44.9
77469;BME280;68840;50.272;12.818;2023-06-14T08:08:05;95971;;;18.7;45.0
77469;BME280;68840;50.272;12.818;2023-06-14T08:10:06;95972;;;18.8;45.2
77469;BME280;68840;50.272;12.818;2023-06-14T08:12:07;95973;;;18.8;45.7
77469;BME280;68840;50.272;12.818;2023-06-14T08:14:05;95976;;;18.9;44.8
77469;BME280;68840;50.272;12.818;2023-06-14T08:16:05;95978;;;19.0;44.2
77469;BME280;68840;50.272;12.818;2023-06-14T08:18:05;95977;;;19.1;43.4
77469;BME280;68840;50.272;12.818;2023-06-14T08:20:07;95982;;;19.1;43.4
77469;BME280;68840;50.272;12.818;2023-06-14T08:22:05;95979;;;19.2;42.7
77469;BME280;68840;50.272;12.818;2023-06-14T08:24:05;95979;;;19.2;42.1
77469;BME280;68840;50.272;12.818;2023-06-14T08:26:05;95981;;;19.2;43.0
77469;BME280;68840;50.272;12.818;2023-06-14T08:28:05;95981;;;19.2;43.1
77469;BME280;68840;50.272;12.818;2023-06-14T08:30:08;95982;;;19.2;44.4
77469;BME280;68840;50.272;12.818;2023-06-14T08:32:05;95983;;;19.2;44.3
77469;BME280;68840;50.272;12.818;2023-06-14T08:34:06;95983;;;19.3;42.9
77469;BME280;68840;50.272;12.818;2023-06-14T08:36:05;95984;;;19.4;41.8
77469;BME280;68840;50.272;12.818;2023-06-14T08:38:05;95983;;;19.4;42.1
77469;BME280;68840;50.272;12.818;2023-06-14T08:40:06;95984;;;19.4;42.9
77469;BME280;68840;50.272;12.818;2023-06-14T08:42:07;95986;;;19.4;42.8
77469;BME280;68840;50.272;12.818;2023-06-14T08:44:07;95987;;;19.4;42.7
77469;BME280;68840;50.272;12.818;2023-06-14T08:46:06;95987;;;19.4;43.2
77469;BME280;68840;50.272;12.818;2023-06-14T08:48:07;95986;;;19.4;43.9
77469;BME280;68840;50.272;12.818;2023-06-14T08:50:06;95984;;;19.5;43.7
77469;BME280;68840;50.272;12.818;2023-06-14T08:52:08;95986;;;19.6;44.0
77469;BME280;68840;50.272;12.818;2023-06-14T08:54:05;95990;;;19.7;42.2
77469;BME280;68840;50.272;12.818;2023-06-14T08:56:05;95987;;;19.8;42.2
77469;BME280;68840;50.272;12.818;2023-06-14T08:58:05;95989;;;19.9;43.6
77469;BME280;68840;50.272;12.818;2023-06-14T09:00:12;95988;;;20.0;42.3
77469;BME280;68840;50.272;12.818;2023-06-14T09:02:05;95989;;;20.2;42.4
77469;BME280;68840;50.272;12.818;2023-06-14T09:04:05;95991;;;20.3;41.5
77469;BME280;68840;50.272;12.818;2023-06-14T09:06:05;95993;;;20.4;41.9
77469;BME280;68840;50.272;12.818;2023-06-14T09:08:05;95995;;;20.5;42.8
77469;BME280;68840;50.272;12.818;2023-06-14T09:10:07;95994;;;20.7;41.8
77469;BME280;68840;50.272;12.818;2023-06-14T09:12:08;95997;;;20.8;41.8
77469;BME280;68840;50.272;12.818;2023-06-14T09:14:05;95996;;;20.9;41.7
77469;BME280;68840;50.272;12.818;2023-06-14T09:16:06;95997;;;21.0;41.3
77469;BME280;68840;50.272;12.818;2023-06-14T09:18:06;96000;;;21.2;39.5
77469;BME280;68840;50.272;12.818;2023-06-14T09:20:09;96002;;;21.2;39.0
77469;BME280;68840;50.272;12.818;2023-06-14T09:22:05;96005;;;21.2;39.8
77469;BME280;68840;50.272;12.818;2023-06-14T09:24:06;96005;;;21.3;38.5
77469;BME280;68840;50.272;12.818;2023-06-14T09:26:06;96007;;;21.3;38.3
77469;BME280;68840;50.272;12.818;2023-06-14T09:28:06;96004;;;21.3;37.8
77469;BME280;68840;50.272;12.818;2023-06-14T09:30:08;95999;;;21.3;39.9
77469;BME280;68840;50.272;12.818;2023-06-14T09:32:06;96000;;;21.3;38.0
77469;BME280;68840;50.272;12.818;2023-06-14T09:34:05;95998;;;21.3;37.8
77469;BME280;68840;50.272;12.818;2023-06-14T09:36:10;95997;;;21.4;39.6
77469;BME280;68840;50.272;12.818;2023-06-14T09:38:06;95996;;;21.4;40.8
77469;BME280;68840;50.272;12.818;2023-06-14T09:40:07;96005;;;21.5;39.4
77469;BME280;68840;50.272;12.818;2023-06-14T09:42:18;96007;;;21.5;39.2
77469;BME280;68840;50.272;12.818;2023-06-14T09:44:07;96005;;;21.5;40.0
77469;BME280;68840;50.272;12.818;2023-06-14T09:46:06;96005;;;21.5;38.9
77469;BME280;68840;50.272;12.818;2023-06-14T09:48:06;96001;;;21.5;38.2
77469;BME280;68840;50.272;12.818;2023-06-14T09:50:06;96004;;;21.6;39.5
77469;BME280;68840;50.272;12.818;2023-06-14T09:52:06;96000;;;21.6;39.6
77469;BME280;68840;50.272;12.818;2023-06-14T09:54:05;96000;;;21.7;39.4
77469;BME280;68840;50.272;12.818;2023-06-14T09:56:05;96004;;;21.8;38.8
77469;BME280;68840;50.272;12.818;2023-06-14T09:58:07;95999;;;21.9;39.0
77469;BME280;68840;50.272;12.818;2023-06-14T10:00:10;96004;;;22.0;39.1
77469;BME280;68840;50.272;12.818;2023-06-14T10:02:09;96000;;;22.1;39.5
77469;BME280;68840;50.272;12.818;2023-06-14T10:04:06;95998;;;22.1;39.3
77469;BME280;68840;50.272;12.818;2023-06-14T10:06:09;95996;;;22.2;39.0
77469;BME280;68840;50.272;12.818;2023-06-14T10:08:08;95996;;;22.3;37.5
77469;BME280;68840;50.272;12.818;2023-06-14T10:10:06;95997;;;22.4;37.5
77469;BME280;68840;50.272;12.818;2023-06-14T10:12:05;95995;;;22.5;37.2
77469;BME280;68840;50.272;12.818;2023-06-14T10:14:06;95996;;;22.5;37.6
77469;BME280;68840;50.272;12.818;2023-06-14T10:16:10;95996;;;22.6;36.3
77469;BME280;68840;50.272;12.818;2023-06-14T10:18:14;95997;;;22.6;35.6
77469;BME280;68840;50.272;12.818;2023-06-14T10:20:16;95994;;;22.6;35.9
77469;BME280;68840;50.272;12.818;2023-06-14T10:22:09;95990;;;22.6;37.2
77469;BME280;68840;50.272;12.818;2023-06-14T10:24:08;95991;;;22.7;35.7
77469;BME280;68840;50.272;12.818;2023-06-14T10:26:05;95985;;;22.7;36.3
77469;BME280;68840;50.272;12.818;2023-06-14T10:28:16;95990;;;22.7;35.2
77469;BME280;68840;50.272;12.818;2023-06-14T10:30:08;95992;;;22.7;34.9
77469;BME280;68840;50.272;12.818;2023-06-14T10:32:05;95991;;;22.7;34.3
77469;BME280;68840;50.272;12.818;2023-06-14T10:34:05;95991;;;22.7;35.6
77469;BME280;68840;50.272;12.818;2023-06-14T10:36:09;95990;;;22.7;34.6
77469;BME280;68840;50.272;12.818;2023-06-14T10:38:07;95987;;;22.7;34.3
77469;BME280;68840;50.272;12.818;2023-06-14T10:40:08;95987;;;22.6;34.5
77469;BME280;68840;50.272;12.818;2023-06-14T10:42:06;95987;;;22.6;34.6
77469;BME280;68840;50.272;12.818;2023-06-14T10:44:33;95989;;;22.6;34.4
77469;BME280;68840;50.272;12.818;2023-06-14T10:46:16;95987;;;22.6;34.0
77469;BME280;68840;50.272;12.818;2023-06-14T10:48:05;95986;;;22.6;35.2
77469;BME280;68840;50.272;12.818;2023-06-14T10:50:07;95984;;;22.7;34.1
77469;BME280;68840;50.272;12.818;2023-06-14T10:52:12;95981;;;22.7;34.5
77469;BME280;68840;50.272;12.818;2023-06-14T10:54:11;95983;;;22.8;34.0
77469;BME280;68840;50.272;12.818;2023-06-14T10:56:06;95982;;;22.9;31.7
77469;BME280;68840;50.272;12.818;2023-06-14T10:58:05;95980;;;22.9;33.6
77469;BME280;68840;50.272;12.818;2023-06-14T11:00:13;95982;;;23.0;32.7
77469;BME280;68840;50.272;12.818;2023-06-14T11:02:20;95978;;;23.0;33.2
77469;BME280;68840;50.272;12.818;2023-06-14T11:04:10;95980;;;23.1;33.2
77469;BME280;68840;50.272;12.818;2023-06-14T11:06:13;95978;;;23.2;33.4
77469;BME280;68840;50.272;12.818;2023-06-14T11:08:18;95975;;;23.3;32.6
77469;BME280;68840;50.272;12.818;2023-06-14T11:10:12;95974;;;23.4;32.3
77469;BME280;68840;50.272;12.818;2023-06-14T11:12:09;95977;;;23.4;33.1